createdAt,value
2018-07-26T00:00:27.947Z,24.80
2018-07-26T00:02:55.722Z,24.00
2018-07-26T00:05:23.770Z,25.40
2018-07-26T00:07:51.452Z,19.40
2018-07-26T00:10:19.141Z,25.80
2018-07-26T00:12:47.202Z,24.40
2018-07-26T00:15:14.893Z,25.00
2018-07-26T00:17:43.183Z,23.20
2018-07-26T00:20:11.798Z,25.00
2018-07-26T00:22:39.671Z,21.00
2018-07-26T00:25:07.356Z,26.80
2018-07-26T00:27:35.370Z,26.60
2018-07-26T00:30:03.120Z,25.60
2018-07-26T00:32:30.804Z,25.60
2018-07-26T00:34:58.809Z,26.00
2018-07-26T00:37:26.516Z,27.00
2018-07-26T00:39:54.757Z,28.00
2018-07-26T00:42:24.373Z,22.60
2018-07-26T00:44:52.061Z,25.60
2018-07-26T00:47:19.899Z,24.60
2018-07-26T00:49:47.629Z,24.20
2018-07-26T00:52:16.196Z,25.20
2018-07-26T00:54:44.057Z,26.00
2018-07-26T00:57:11.863Z,25.20
2018-07-26T00:59:39.611Z,27.60
2018-07-26T01:02:07.637Z,26.40
2018-07-26T01:04:35.324Z,20.40
2018-07-26T01:07:03.033Z,24.20
2018-07-26T01:09:30.749Z,27.20
2018-07-26T01:11:58.762Z,27.20
2018-07-26T01:14:26.509Z,24.40
2018-07-26T01:16:54.249Z,22.60
2018-07-26T01:19:21.937Z,24.20
2018-07-26T01:21:49.890Z,24.00
2018-07-26T01:24:17.584Z,26.20
2018-07-26T01:26:45.274Z,25.20
2018-07-26T01:29:13.224Z,23.60
2018-07-26T01:31:41.169Z,25.00
2018-07-26T01:34:08.882Z,26.00
2018-07-26T01:36:36.577Z,27.40
2018-07-26T01:39:04.478Z,22.40
2018-07-26T01:41:32.609Z,23.20
2018-07-26T01:44:00.312Z,23.20
2018-07-26T01:46:28.360Z,27.00
2018-07-26T01:48:57.895Z,27.20
2018-07-26T01:51:25.971Z,28.20
2018-07-26T01:53:54.352Z,26.40
2018-07-26T01:56:22.057Z,23.80
2018-07-26T01:58:50.737Z,26.60
2018-07-26T02:01:18.448Z,25.20
2018-07-26T02:03:46.665Z,26.60
2018-07-26T02:06:14.384Z,29.00
2018-07-26T02:08:42.550Z,30.20
2018-07-26T02:11:10.220Z,29.00
2018-07-26T02:13:37.898Z,25.80
2018-07-26T02:16:06.194Z,26.80
2018-07-26T02:18:33.869Z,26.40
2018-07-26T02:21:01.628Z,29.00
2018-07-26T02:23:29.633Z,25.80
2018-07-26T02:25:57.584Z,29.00
2018-07-26T02:28:25.285Z,24.40
2018-07-26T02:30:52.975Z,29.00
2018-07-26T02:33:21.132Z,28.60
2018-07-26T02:35:48.886Z,29.00
2018-07-26T02:38:16.589Z,26.00
2018-07-26T02:40:45.377Z,28.80
2018-07-26T02:43:13.424Z,26.80
2018-07-26T02:45:41.149Z,26.60
2018-07-26T02:48:09.294Z,23.60
2018-07-26T02:50:37.061Z,25.60
2018-07-26T02:53:05.245Z,26.20
2018-07-26T02:55:32.986Z,25.80
2018-07-26T02:58:00.763Z,26.60
2018-07-26T03:00:30.233Z,25.20
2018-07-26T03:02:58.261Z,29.20
2018-07-26T03:05:25.949Z,26.60
2018-07-26T03:07:53.673Z,25.40
2018-07-26T03:10:21.693Z,25.80
2018-07-26T03:12:49.399Z,29.20
2018-07-26T03:15:17.114Z,27.00
2018-07-26T03:17:45.098Z,28.20
2018-07-26T03:20:12.800Z,30.00
2018-07-26T03:22:40.741Z,28.00
2018-07-26T03:25:08.471Z,29.00
2018-07-26T03:27:36.535Z,28.80
2018-07-26T03:30:04.246Z,29.00
2018-07-26T03:32:31.962Z,29.40
2018-07-26T03:34:59.717Z,31.40
2018-07-26T03:37:27.685Z,29.20
2018-07-26T03:39:55.413Z,32.20
2018-07-26T03:42:23.177Z,31.80
2018-07-26T03:44:51.450Z,29.80
2018-07-26T03:47:19.765Z,22.20
2018-07-26T03:49:48.059Z,29.20
2018-07-26T03:52:17.448Z,30.00
2018-07-26T03:54:45.929Z,31.20
2018-07-26T03:57:13.707Z,29.80
2018-07-26T03:59:41.706Z,31.00
2018-07-26T04:02:09.809Z,28.40
2018-07-26T04:04:37.521Z,31.40
2018-07-26T04:07:08.392Z,29.00
2018-07-26T04:09:36.115Z,26.40
2018-07-26T04:12:03.801Z,27.20
2018-07-26T04:14:31.500Z,28.40
2018-07-26T04:16:59.222Z,30.60
2018-07-26T04:19:26.932Z,31.20
2018-07-26T04:21:54.897Z,29.20
2018-07-26T04:24:22.624Z,29.20
2018-07-26T04:26:51.279Z,31.80
2018-07-26T04:29:20.055Z,29.60
2018-07-26T04:31:47.858Z,30.80
2018-07-26T04:34:15.558Z,29.60
2018-07-26T04:36:43.560Z,28.60
2018-07-26T04:39:12.450Z,30.00
2018-07-26T04:41:43.805Z,30.80
2018-07-26T04:44:12.469Z,27.80
2018-07-26T04:46:40.213Z,30.00
2018-07-26T04:49:08.934Z,31.40
2018-07-26T04:51:36.960Z,31.20
2018-07-26T04:54:04.686Z,29.80
2018-07-26T04:56:32.608Z,29.60
2018-07-26T04:59:00.580Z,30.00
2018-07-26T05:01:29.163Z,32.80
2018-07-26T05:03:56.914Z,32.40
2018-07-26T05:06:25.030Z,29.40
2018-07-26T05:08:52.708Z,32.00
2018-07-26T05:11:20.441Z,30.40
2018-07-26T05:13:48.438Z,31.20
2018-07-26T05:16:16.172Z,29.40
2018-07-26T05:18:43.856Z,29.60
2018-07-26T05:21:12.669Z,32.60
2018-07-26T05:23:40.394Z,30.00
2018-07-26T05:26:08.944Z,30.80
2018-07-26T05:28:36.937Z,31.20
2018-07-26T05:31:04.668Z,31.20
2018-07-26T05:33:32.688Z,28.00
2018-07-26T05:36:00.909Z,31.20
2018-07-26T05:38:30.470Z,29.60
2018-07-26T05:40:58.243Z,30.20
2018-07-26T05:43:27.957Z,29.60
2018-07-26T05:45:55.689Z,32.60
2018-07-26T05:48:26.504Z,27.20
2018-07-26T05:50:54.564Z,30.20
2018-07-26T05:53:26.890Z,30.00
2018-07-26T05:55:54.689Z,31.20
2018-07-26T05:58:22.660Z,30.00
2018-07-26T06:00:50.384Z,31.00
2018-07-26T06:03:18.132Z,27.00
2018-07-26T06:05:46.317Z,28.00
2018-07-26T06:08:14.818Z,27.80
2018-07-26T06:10:42.528Z,27.00
2018-07-26T06:13:10.480Z,26.20
2018-07-26T06:15:38.183Z,26.40
2018-07-26T06:18:05.920Z,27.40
2018-07-26T06:20:33.940Z,29.00
2018-07-26T06:23:01.696Z,26.80
2018-07-26T06:25:29.416Z,26.00
2018-07-26T06:27:58.471Z,22.40
2018-07-26T06:30:26.197Z,24.60
2018-07-26T06:32:53.927Z,22.60
2018-07-26T06:35:21.904Z,24.60
2018-07-26T06:37:50.560Z,22.00
2018-07-26T06:40:19.433Z,24.20
2018-07-26T06:42:48.385Z,22.40
2018-07-26T06:45:16.096Z,23.40
2018-07-26T06:47:43.796Z,21.60
2018-07-26T06:50:13.098Z,20.60
2018-07-26T06:52:41.108Z,20.80
2018-07-26T06:55:09.869Z,20.40
2018-07-26T06:57:40.064Z,22.40
2018-07-26T07:00:07.824Z,20.20
2018-07-26T07:02:35.561Z,22.20
2018-07-26T07:05:03.729Z,21.20
2018-07-26T07:07:32.536Z,19.00
2018-07-26T07:10:00.283Z,20.60
2018-07-26T07:12:28.385Z,20.00
2018-07-26T07:14:56.112Z,18.20
2018-07-26T07:17:23.804Z,19.20
2018-07-26T07:19:51.788Z,21.80
2018-07-26T07:22:19.488Z,18.40
2018-07-26T07:24:48.458Z,18.20
2018-07-26T07:27:18.630Z,19.60
2018-07-26T07:29:46.359Z,19.00
2018-07-26T07:32:14.685Z,19.80
2018-07-26T07:34:43.653Z,18.20
2018-07-26T07:37:12.044Z,18.00
2018-07-26T07:39:39.797Z,18.80
2018-07-26T07:42:07.821Z,18.60
2018-07-26T07:44:35.536Z,17.20
2018-07-26T07:47:03.335Z,16.60
2018-07-26T07:49:31.460Z,14.60
2018-07-26T07:51:59.356Z,18.40
2018-07-26T07:54:27.717Z,16.60
2018-07-26T07:56:55.701Z,16.40
2018-07-26T07:59:23.443Z,16.20
2018-07-26T08:01:51.144Z,14.40
2018-07-26T08:04:19.270Z,15.40
2018-07-26T08:06:48.981Z,13.60
2018-07-26T08:09:16.669Z,16.20
2018-07-26T08:11:45.620Z,12.00
2018-07-26T08:14:13.303Z,12.60
2018-07-26T08:16:42.533Z,12.20
2018-07-26T08:19:10.524Z,11.00
2018-07-26T08:21:39.905Z,7.00
2018-07-26T08:24:07.566Z,9.00
2018-07-26T08:26:35.561Z,10.20
2018-07-26T08:29:04.312Z,6.60
2018-07-26T08:31:32.033Z,7.20
2018-07-26T08:34:00.666Z,8.00
2018-07-26T08:36:28.348Z,8.00
2018-07-26T08:38:57.392Z,7.40
2018-07-26T08:41:25.344Z,7.20
2018-07-26T08:43:53.585Z,7.40
2018-07-26T08:46:21.308Z,9.20
2018-07-26T08:48:49.025Z,9.60
2018-07-26T08:51:16.713Z,9.20
2018-07-26T08:53:44.688Z,8.60
2018-07-26T08:56:12.348Z,7.00
2018-07-26T08:58:40.073Z,9.00
2018-07-26T09:01:09.860Z,8.00
2018-07-26T09:03:37.508Z,9.00
2018-07-26T09:06:06.317Z,7.40
2018-07-26T09:08:34.293Z,9.00
2018-07-26T09:11:02.118Z,7.60
2018-07-26T09:13:29.882Z,9.00
2018-07-26T09:15:57.892Z,8.80
2018-07-26T09:18:25.568Z,6.60
2018-07-26T09:20:53.278Z,9.00
2018-07-26T09:23:21.625Z,8.80
2018-07-26T09:25:51.924Z,7.40
2018-07-26T09:28:20.550Z,8.00
2018-07-26T09:30:48.535Z,8.80
2018-07-26T09:33:18.013Z,8.00
2018-07-26T09:35:45.685Z,8.20
2018-07-26T09:38:13.632Z,7.20
2018-07-26T09:40:41.292Z,6.40
2018-07-26T09:43:08.948Z,6.80
2018-07-26T09:45:36.973Z,5.00
2018-07-26T09:48:04.692Z,0.20
2018-07-26T09:50:34.712Z,5.80
2018-07-26T09:53:02.701Z,5.60
2018-07-26T09:55:30.377Z,6.80
2018-07-26T09:57:58.037Z,4.00
2018-07-26T10:00:30.869Z,6.60
2018-07-26T10:02:59.173Z,6.40
2018-07-26T10:05:26.843Z,8.00
2018-07-26T10:07:57.633Z,4.80
2018-07-26T10:10:25.293Z,6.80
2018-07-26T10:12:53.889Z,5.60
2018-07-26T10:15:21.898Z,6.80
2018-07-26T10:17:51.361Z,6.60
2018-07-26T10:20:19.111Z,4.60
2018-07-26T10:22:48.478Z,4.80
2018-07-26T10:25:16.709Z,4.20
2018-07-26T10:27:45.056Z,8.00
2018-07-26T10:30:14.659Z,7.80
2018-07-26T10:32:42.947Z,4.80
2018-07-26T10:35:10.753Z,3.20
2018-07-26T10:37:38.752Z,3.80
2018-07-26T10:40:06.487Z,5.80
2018-07-26T10:42:34.201Z,6.40
2018-07-26T10:45:02.141Z,4.00
2018-07-26T10:47:32.976Z,4.00
2018-07-26T10:50:00.687Z,4.20
2018-07-26T10:52:28.669Z,4.00
2018-07-26T10:54:56.380Z,5.00
2018-07-26T10:57:24.089Z,4.00
2018-07-26T10:59:54.426Z,5.60
2018-07-26T11:02:23.280Z,5.80
2018-07-26T11:04:51.840Z,5.20
2018-07-26T11:07:21.138Z,5.60
2018-07-26T11:09:49.924Z,7.60
2018-07-26T11:12:18.618Z,6.00
2018-07-26T11:14:48.544Z,7.80
2018-07-26T11:17:17.140Z,7.00
2018-07-26T11:19:45.532Z,6.40
2018-07-26T11:22:13.475Z,6.00
2018-07-26T11:24:46.918Z,7.20
2018-07-26T11:27:14.650Z,7.00
2018-07-26T11:29:46.399Z,6.40
2018-07-26T11:32:14.107Z,7.00
2018-07-26T11:34:41.822Z,6.60
2018-07-26T11:37:09.773Z,7.20
2018-07-26T11:39:38.289Z,7.00
2018-07-26T11:42:07.923Z,5.60
2018-07-26T11:44:35.868Z,6.20
2018-07-26T11:47:04.192Z,6.00
2018-07-26T11:49:31.856Z,5.00
2018-07-26T11:52:00.488Z,4.00
2018-07-26T11:54:28.564Z,5.80
2018-07-26T11:56:56.628Z,4.00
2018-07-26T11:59:25.158Z,4.40
2018-07-26T12:01:53.173Z,5.00
2018-07-26T12:04:24.653Z,6.20
2018-07-26T12:06:52.677Z,4.60
2018-07-26T12:09:20.516Z,5.00
2018-07-26T12:11:48.266Z,5.60
2018-07-26T12:14:16.245Z,4.00
2018-07-26T12:16:50.536Z,4.40
2018-07-26T12:19:18.222Z,4.00
2018-07-26T12:21:46.198Z,4.00
2018-07-26T12:24:16.852Z,3.00
2018-07-26T12:26:44.780Z,4.00
2018-07-26T12:29:14.443Z,2.20
2018-07-26T12:31:43.747Z,3.00
2018-07-26T12:34:11.504Z,3.00
2018-07-26T12:36:40.280Z,4.00
2018-07-26T12:39:10.257Z,3.40
2018-07-26T12:41:37.949Z,4.60
2018-07-26T12:44:07.102Z,4.40
2018-07-26T12:46:36.433Z,4.20
2018-07-26T12:49:04.352Z,4.00
2018-07-26T12:51:32.397Z,4.00
2018-07-26T12:54:00.364Z,3.20
2018-07-26T12:56:30.273Z,3.00
2018-07-26T12:58:58.648Z,4.00
2018-07-26T13:01:27.519Z,4.00
2018-07-26T13:03:56.648Z,4.00
2018-07-26T13:06:24.672Z,4.00
2018-07-26T13:08:52.551Z,4.80
2018-07-26T13:11:20.293Z,4.00
2018-07-26T13:13:48.345Z,3.00
2018-07-26T13:16:16.248Z,2.00
2018-07-26T13:18:44.721Z,4.00
2018-07-26T13:21:12.674Z,4.40
2018-07-26T13:23:42.594Z,4.00
2018-07-26T13:26:11.954Z,5.00
2018-07-26T13:28:39.917Z,4.80
2018-07-26T13:31:07.627Z,3.60
2018-07-26T13:33:43.318Z,4.00
2018-07-26T13:36:12.289Z,4.00
2018-07-26T13:38:39.953Z,4.00
2018-07-26T13:41:08.278Z,4.00
2018-07-26T13:43:36.225Z,3.60
2018-07-26T13:46:04.579Z,4.00
2018-07-26T13:48:32.300Z,3.20
2018-07-26T13:51:01.171Z,3.00
2018-07-26T13:53:28.843Z,4.00
2018-07-26T13:55:59.521Z,3.40
2018-07-26T13:58:28.035Z,3.80
2018-07-26T14:00:57.143Z,3.20
2018-07-26T14:03:25.755Z,2.20
2018-07-26T14:06:02.505Z,3.00
2018-07-26T14:08:30.231Z,4.00
2018-07-26T14:10:58.167Z,4.00
2018-07-26T14:13:26.468Z,3.60
2018-07-26T14:15:54.299Z,2.60
2018-07-26T14:18:23.314Z,3.20
2018-07-26T14:20:51.063Z,3.00
2018-07-26T14:23:23.805Z,3.00
2018-07-26T14:25:52.728Z,3.00
2018-07-26T14:28:21.972Z,3.00
2018-07-26T14:30:50.357Z,4.00
2018-07-26T14:33:19.882Z,4.20
2018-07-26T14:35:48.255Z,3.80
2018-07-26T14:38:17.398Z,4.00
2018-07-26T14:40:45.383Z,3.20
2018-07-26T14:43:13.060Z,4.20
2018-07-26T14:45:41.357Z,4.60
2018-07-26T14:48:10.297Z,4.20
2018-07-26T14:50:39.584Z,3.60
2018-07-26T14:53:09.772Z,4.00
2018-07-26T14:55:41.185Z,3.40
2018-07-26T14:58:10.025Z,4.20
2018-07-26T15:00:38.012Z,4.00
2018-07-26T15:03:08.381Z,3.00
2018-07-26T15:05:40.485Z,5.20
2018-07-26T15:08:09.029Z,4.00
2018-07-26T15:10:38.307Z,3.80
2018-07-26T15:13:07.750Z,4.80
2018-07-26T15:15:35.438Z,4.60
2018-07-26T15:18:03.509Z,3.40
2018-07-26T15:20:31.213Z,4.40
2018-07-26T15:22:58.985Z,3.80
2018-07-26T15:25:27.778Z,4.00
2018-07-26T15:27:56.481Z,4.00
2018-07-26T15:30:24.337Z,5.00
2018-07-26T15:32:53.112Z,3.40
2018-07-26T15:35:20.846Z,4.00
2018-07-26T15:37:49.115Z,5.00
2018-07-26T15:40:17.136Z,3.20
2018-07-26T15:42:44.841Z,5.00
2018-07-26T15:45:12.647Z,4.00
2018-07-26T15:47:40.634Z,4.00
2018-07-26T15:50:09.181Z,4.80
2018-07-26T15:52:39.384Z,4.20
2018-07-26T15:55:08.139Z,4.00
2018-07-26T15:57:36.736Z,4.00
2018-07-26T16:00:07.265Z,4.00
2018-07-26T16:02:35.261Z,4.40
2018-07-26T16:05:02.973Z,5.40
2018-07-26T16:07:30.645Z,4.00
2018-07-26T16:09:58.585Z,3.80
2018-07-26T16:12:26.944Z,4.00
2018-07-26T16:14:54.663Z,4.00
2018-07-26T16:17:22.828Z,2.80
2018-07-26T16:19:51.402Z,4.00
2018-07-26T16:22:20.693Z,4.00
2018-07-26T16:24:49.613Z,4.60
2018-07-26T16:27:20.453Z,5.00
2018-07-26T16:29:51.935Z,3.00
2018-07-26T16:32:21.305Z,4.00
2018-07-26T16:34:50.026Z,4.00
2018-07-26T16:37:18.390Z,3.80
2018-07-26T16:39:46.351Z,3.80
2018-07-26T16:42:14.556Z,4.00
2018-07-26T16:44:42.208Z,3.40
2018-07-26T16:47:10.156Z,5.00
2018-07-26T16:49:37.848Z,3.80
2018-07-26T16:52:06.323Z,2.80
2018-07-26T16:54:34.358Z,4.00
2018-07-26T16:57:02.030Z,3.20
2018-07-26T16:59:29.746Z,2.20
2018-07-26T17:01:58.592Z,3.60
2018-07-26T17:04:26.928Z,4.20
2018-07-26T17:06:57.600Z,4.80
2018-07-26T17:09:25.630Z,4.60
2018-07-26T17:11:53.541Z,5.80
2018-07-26T17:14:22.819Z,4.00
2018-07-26T17:16:51.762Z,4.60
2018-07-26T17:19:19.446Z,5.00
2018-07-26T17:21:47.117Z,7.00
2018-07-26T17:24:15.058Z,5.20
2018-07-26T17:26:43.426Z,6.20
2018-07-26T17:29:11.246Z,6.40
2018-07-26T17:31:40.670Z,6.00
2018-07-26T17:34:08.364Z,7.60
2018-07-26T17:36:36.080Z,7.40
2018-07-26T17:39:05.055Z,4.20
2018-07-26T17:41:32.753Z,6.80
2018-07-26T17:44:00.426Z,4.00
2018-07-26T17:46:28.406Z,7.20
2018-07-26T17:48:56.162Z,6.20
2018-07-26T17:51:24.593Z,7.80
2018-07-26T17:53:53.234Z,4.40
2018-07-26T17:56:22.413Z,5.40
2018-07-26T17:58:50.171Z,6.00
2018-07-26T18:01:18.149Z,6.00
2018-07-26T18:03:45.837Z,6.00
2018-07-26T18:06:14.318Z,6.20
2018-07-26T18:08:42.321Z,5.00
2018-07-26T18:11:11.032Z,6.00
2018-07-26T18:13:39.321Z,6.00
2018-07-26T18:16:08.502Z,6.00
2018-07-26T18:18:36.971Z,7.00
2018-07-26T18:21:04.657Z,6.40
2018-07-26T18:23:33.221Z,6.20
2018-07-26T18:26:00.934Z,5.80
2018-07-26T18:28:29.968Z,6.60
2018-07-26T18:30:58.625Z,6.80
2018-07-26T18:33:28.297Z,7.20
2018-07-26T18:35:55.973Z,7.20
2018-07-26T18:38:24.045Z,6.60
2018-07-26T18:40:51.692Z,6.00
2018-07-26T18:43:19.695Z,7.40
2018-07-26T18:45:47.759Z,11.20
2018-07-26T18:48:15.483Z,6.60
2018-07-26T18:50:43.242Z,7.00
2018-07-26T18:53:11.213Z,6.80
2018-07-26T18:55:39.979Z,7.40
2018-07-26T18:58:07.700Z,6.60
2018-07-26T19:00:35.669Z,7.00
2018-07-26T19:03:03.380Z,6.40
2018-07-26T19:05:31.064Z,7.00
2018-07-26T19:07:59.743Z,6.80
2018-07-26T19:10:27.396Z,7.40
2018-07-26T19:12:55.113Z,8.00
2018-07-26T19:15:23.069Z,6.60
2018-07-26T19:17:50.763Z,5.20
2018-07-26T19:20:18.473Z,7.40
2018-07-26T19:22:47.421Z,7.20
2018-07-26T19:25:15.113Z,9.80
2018-07-26T19:27:42.808Z,7.20
2018-07-26T19:30:12.564Z,7.00
2018-07-26T19:32:41.029Z,6.80
2018-07-26T19:35:08.731Z,8.00
2018-07-26T19:37:37.327Z,6.40
2018-07-26T19:40:04.998Z,5.80
2018-07-26T19:42:32.664Z,6.80
2018-07-26T19:45:02.077Z,8.00
2018-07-26T19:47:29.728Z,7.20
2018-07-26T19:49:58.061Z,9.20
2018-07-26T19:52:26.526Z,7.20
2018-07-26T19:54:55.356Z,6.60
2018-07-26T19:57:25.677Z,5.20
2018-07-26T19:59:54.764Z,7.20
2018-07-26T20:02:24.212Z,6.40
2018-07-26T20:04:52.484Z,7.00
2018-07-26T20:07:20.660Z,3.80
2018-07-26T20:09:49.154Z,8.60
2018-07-26T20:12:20.671Z,6.80
2018-07-26T20:14:49.344Z,8.40
2018-07-26T20:17:17.548Z,9.00
2018-07-26T20:19:45.256Z,8.00
2018-07-26T20:22:13.206Z,8.00
2018-07-26T20:24:40.898Z,8.40
2018-07-26T20:27:08.620Z,10.20
2018-07-26T20:29:36.614Z,9.40
2018-07-26T20:32:04.301Z,7.60
2018-07-26T20:34:32.533Z,8.40
2018-07-26T20:37:02.203Z,7.60
2018-07-26T20:39:30.565Z,8.20
2018-07-26T20:41:58.268Z,8.20
2018-07-26T20:44:27.025Z,8.20
2018-07-26T20:46:54.709Z,7.60
2018-07-26T20:49:22.372Z,8.80
2018-07-26T20:51:50.054Z,8.00
2018-07-26T20:54:18.564Z,8.00
2018-07-26T20:56:46.568Z,8.40
2018-07-26T20:59:18.066Z,8.00
2018-07-26T21:01:45.803Z,8.40
2018-07-26T21:04:14.937Z,8.80
2018-07-26T21:06:45.208Z,9.00
2018-07-26T21:09:14.712Z,8.60
2018-07-26T21:11:45.274Z,9.00
2018-07-26T21:14:13.634Z,8.20
2018-07-26T21:16:43.347Z,8.00
2018-07-26T21:19:11.337Z,8.20
2018-07-26T21:21:39.009Z,8.00
2018-07-26T21:24:07.436Z,8.00
2018-07-26T21:26:35.410Z,6.60
2018-07-26T21:29:03.112Z,8.00
2018-07-26T21:31:31.325Z,9.00
2018-07-26T21:33:59.401Z,8.00
2018-07-26T21:36:28.048Z,8.20
2018-07-26T21:38:56.504Z,7.60
2018-07-26T21:41:24.596Z,7.60
2018-07-26T21:43:53.209Z,8.40
2018-07-26T21:46:21.501Z,8.00
2018-07-26T21:48:50.497Z,8.60
2018-07-26T21:51:22.601Z,9.80
2018-07-26T21:53:52.502Z,6.00
2018-07-26T21:56:20.643Z,9.00
2018-07-26T21:58:48.336Z,8.80
2018-07-26T22:01:16.007Z,7.40
2018-07-26T22:03:44.674Z,8.00
2018-07-26T22:06:12.557Z,7.00
2018-07-26T22:08:40.293Z,9.20
2018-07-26T22:11:08.801Z,8.40
2018-07-26T22:13:36.760Z,7.20
2018-07-26T22:16:04.446Z,6.80
2018-07-26T22:18:32.159Z,7.20
2018-07-26T22:21:00.573Z,7.00
2018-07-26T22:23:28.900Z,7.20
2018-07-26T22:25:56.569Z,7.60
2018-07-26T22:28:26.212Z,8.00
2018-07-26T22:30:53.877Z,8.80
2018-07-26T22:33:22.161Z,6.00
2018-07-26T22:35:51.261Z,7.20
2018-07-26T22:38:19.501Z,8.20
2018-07-26T22:40:49.217Z,7.00
2018-07-26T22:43:19.112Z,6.40
2018-07-26T22:45:47.893Z,7.40
2018-07-26T22:48:16.356Z,6.00
2018-07-26T22:50:44.937Z,7.00
2018-07-26T22:53:13.709Z,7.00
2018-07-26T22:55:41.377Z,8.40
2018-07-26T22:58:09.577Z,7.40
2018-07-26T23:00:37.629Z,6.00
2018-07-26T23:03:07.500Z,6.60
2018-07-26T23:05:36.266Z,7.60
2018-07-26T23:08:05.409Z,8.00
2018-07-26T23:10:35.217Z,7.00
2018-07-26T23:13:04.411Z,6.00
2018-07-26T23:15:33.577Z,7.20
2018-07-26T23:18:03.806Z,7.00
2018-07-26T23:20:31.732Z,7.00
2018-07-26T23:22:59.485Z,8.40
2018-07-26T23:25:27.154Z,6.40
2018-07-26T23:27:55.108Z,6.80
2018-07-26T23:30:22.832Z,7.80
2018-07-26T23:32:51.545Z,6.60
2018-07-26T23:35:19.746Z,8.60
2018-07-26T23:37:47.733Z,6.20
2018-07-26T23:40:16.273Z,5.00
2018-07-26T23:42:44.222Z,7.00
2018-07-26T23:45:12.591Z,6.00
2018-07-26T23:47:42.276Z,5.00
2018-07-26T23:50:10.652Z,5.00
2018-07-26T23:52:40.912Z,6.60
2018-07-26T23:55:08.900Z,7.00
2018-07-26T23:57:36.623Z,7.00
